createdAt,value
2023-02-24T00:02:39.284Z,5.50
2023-02-24T00:06:06.437Z,5.40
2023-02-24T00:09:31.740Z,5.40
2023-02-24T00:12:55.318Z,5.30
2023-02-24T00:16:20.749Z,5.20
2023-02-24T00:19:48.206Z,5.30
2023-02-24T00:23:12.325Z,5.20
2023-02-24T00:26:36.350Z,5.30
2023-02-24T00:30:01.583Z,5.20
2023-02-24T00:33:26.350Z,5.00
2023-02-24T00:36:51.795Z,5.10
2023-02-24T00:40:15.927Z,5.00
2023-02-24T00:43:40.599Z,5.00
2023-02-24T00:47:06.350Z,4.90
2023-02-24T00:50:30.680Z,4.90
2023-02-24T00:53:57.799Z,4.90
2023-02-24T00:57:21.886Z,4.90
2023-02-24T01:00:47.497Z,4.90
2023-02-24T01:04:14.689Z,4.90
2023-02-24T01:07:41.039Z,4.90
2023-02-24T01:11:23.727Z,5.00
2023-02-24T01:14:49.181Z,5.10
2023-02-24T01:18:13.407Z,5.10
2023-02-24T01:21:37.476Z,5.20
2023-02-24T01:25:01.386Z,5.10
2023-02-24T01:28:32.470Z,5.10
2023-02-24T01:32:02.001Z,5.10
2023-02-24T01:35:27.423Z,5.20
2023-02-24T01:38:51.436Z,5.10
2023-02-24T01:42:19.322Z,5.10
2023-02-24T01:45:44.828Z,5.10
2023-02-24T01:49:13.814Z,5.00
2023-02-24T01:52:38.248Z,5.10
2023-02-24T01:56:02.482Z,5.10
2023-02-24T01:59:31.209Z,5.10
2023-02-24T02:03:00.593Z,5.20
2023-02-24T02:06:24.365Z,5.20
2023-02-24T02:09:49.831Z,5.10
2023-02-24T02:13:21.400Z,5.10
2023-02-24T02:17:03.965Z,5.10
2023-02-24T02:20:56.805Z,5.10
2023-02-24T02:24:34.505Z,5.10
2023-02-24T02:28:38.958Z,5.00
2023-02-24T02:32:41.675Z,4.90
2023-02-24T02:36:22.190Z,4.80
2023-02-24T02:39:52.495Z,4.80
2023-02-24T02:43:25.855Z,4.70
2023-02-24T02:46:54.273Z,4.70
2023-02-24T02:50:26.878Z,4.80
2023-02-24T02:53:57.034Z,4.80
2023-02-24T02:57:27.959Z,4.70
2023-02-24T03:01:02.440Z,4.70
2023-02-24T03:04:34.720Z,4.60
2023-02-24T03:08:01.555Z,4.60
2023-02-24T03:11:27.595Z,4.50
2023-02-24T03:14:58.294Z,4.60
2023-02-24T03:18:29.068Z,4.60
2023-02-24T03:22:00.109Z,4.60
2023-02-24T03:25:29.002Z,4.60
2023-02-24T03:29:02.125Z,4.70
2023-02-24T03:32:33.096Z,4.60
2023-02-24T03:36:01.608Z,4.60
2023-02-24T03:39:26.914Z,4.60
2023-02-24T03:43:07.477Z,4.50
2023-02-24T03:46:33.952Z,4.50
2023-02-24T03:49:58.254Z,4.50
2023-02-24T03:53:35.628Z,4.40
2023-02-24T03:57:12.360Z,4.30
2023-02-24T04:00:42.559Z,4.20
2023-02-24T04:04:17.164Z,4.10
2023-02-24T04:07:57.581Z,4.00
2023-02-24T04:11:28.971Z,3.90
2023-02-24T04:14:58.984Z,3.80
2023-02-24T04:18:27.275Z,3.70
2023-02-24T04:21:52.649Z,3.70
2023-02-24T04:25:24.899Z,3.70
2023-02-24T04:28:50.746Z,3.70
2023-02-24T04:32:16.575Z,3.60
2023-02-24T04:35:41.696Z,3.50
2023-02-24T04:39:08.804Z,3.70
2023-02-24T04:42:33.750Z,3.70
2023-02-24T04:45:57.689Z,3.50
2023-02-24T04:49:22.228Z,3.40
2023-02-24T04:52:46.171Z,3.30
2023-02-24T04:56:12.090Z,3.20
2023-02-24T04:59:37.980Z,3.20
2023-02-24T05:03:02.631Z,3.20
2023-02-24T05:06:28.493Z,3.00
2023-02-24T05:09:55.282Z,3.00
2023-02-24T05:13:26.584Z,2.90
2023-02-24T05:16:51.982Z,2.90
2023-02-24T05:20:34.923Z,2.90
2023-02-24T05:24:04.920Z,2.90
2023-02-24T05:27:29.025Z,2.90
2023-02-24T05:30:54.708Z,3.00
2023-02-24T05:34:18.913Z,3.10
2023-02-24T05:37:44.028Z,3.10
2023-02-24T05:41:14.942Z,3.20
2023-02-24T05:44:39.807Z,3.20
2023-02-24T05:48:05.725Z,3.20
2023-02-24T05:51:36.249Z,3.20
2023-02-24T05:55:02.590Z,3.30
2023-02-24T05:58:29.005Z,3.20
2023-02-24T06:01:53.894Z,3.20
2023-02-24T06:05:27.395Z,3.20
2023-02-24T06:08:51.977Z,3.10
2023-02-24T06:12:15.694Z,3.10
2023-02-24T06:15:41.664Z,3.10
2023-02-24T06:19:05.855Z,3.10
2023-02-24T06:22:33.621Z,3.10
2023-02-24T06:26:03.850Z,3.10
2023-02-24T06:29:30.163Z,3.10
2023-02-24T06:32:54.024Z,3.10
2023-02-24T06:36:17.833Z,3.00
2023-02-24T06:39:44.209Z,3.00
2023-02-24T06:43:10.803Z,3.00
2023-02-24T06:46:35.011Z,3.00
2023-02-24T06:49:58.815Z,3.00
2023-02-24T06:53:23.876Z,2.90
2023-02-24T06:56:49.216Z,2.90
2023-02-24T07:00:18.221Z,3.00
2023-02-24T07:04:02.736Z,3.00
2023-02-24T07:07:29.008Z,3.10
2023-02-24T07:10:55.878Z,3.10
2023-02-24T07:14:22.978Z,3.20
2023-02-24T07:17:48.464Z,3.20
2023-02-24T07:21:12.811Z,3.20
2023-02-24T07:24:42.703Z,3.10
2023-02-24T07:28:07.437Z,3.10
2023-02-24T07:31:34.384Z,3.10
2023-02-24T07:34:59.384Z,3.10
2023-02-24T07:38:23.885Z,3.20
2023-02-24T07:41:49.406Z,3.20
2023-02-24T07:45:14.348Z,3.20
2023-02-24T07:48:41.350Z,3.30
2023-02-24T07:52:08.097Z,3.40
2023-02-24T07:55:31.880Z,3.40
2023-02-24T07:59:02.834Z,3.50
2023-02-24T08:02:27.485Z,3.50
2023-02-24T08:06:00.122Z,3.50
2023-02-24T08:09:40.134Z,3.50
2023-02-24T08:13:12.374Z,3.50
2023-02-24T08:16:40.532Z,3.60
2023-02-24T08:20:18.485Z,3.60
2023-02-24T08:23:45.536Z,3.50
2023-02-24T08:27:09.279Z,3.50
2023-02-24T08:30:38.662Z,3.60
2023-02-24T08:34:02.341Z,3.60
2023-02-24T08:37:26.459Z,3.60
2023-02-24T08:40:54.674Z,3.70
2023-02-24T08:44:20.307Z,3.70
2023-02-24T08:47:45.188Z,3.80
2023-02-24T08:51:12.464Z,3.80
2023-02-24T08:54:48.047Z,3.80
2023-02-24T08:58:18.118Z,3.80
2023-02-24T09:02:04.381Z,3.70
2023-02-24T09:05:29.463Z,3.80
2023-02-24T09:09:17.034Z,3.70
2023-02-24T09:12:41.674Z,3.60
2023-02-24T09:16:16.179Z,3.50
2023-02-24T09:19:56.655Z,3.50
2023-02-24T09:23:29.740Z,3.40
2023-02-24T09:26:58.494Z,3.40
2023-02-24T09:30:37.049Z,3.30
2023-02-24T09:34:04.023Z,3.30
2023-02-24T09:37:27.785Z,3.20
2023-02-24T09:40:52.086Z,3.20
2023-02-24T09:44:19.109Z,3.00
2023-02-24T09:47:56.821Z,3.00
2023-02-24T09:51:25.672Z,3.00
2023-02-24T09:55:18.950Z,3.00
2023-02-24T09:58:47.768Z,2.90
2023-02-24T10:02:29.142Z,2.90
2023-02-24T10:05:59.763Z,2.80
2023-02-24T10:09:33.527Z,2.90
2023-02-24T10:13:13.025Z,2.80
2023-02-24T10:16:46.176Z,2.90
2023-02-24T10:20:30.808Z,2.90
2023-02-24T10:24:05.565Z,2.90
2023-02-24T10:27:39.468Z,2.90
2023-02-24T10:31:25.173Z,2.90
2023-02-24T10:34:50.255Z,2.90
2023-02-24T10:38:14.008Z,2.90
2023-02-24T10:41:49.012Z,2.90
2023-02-24T10:45:18.211Z,2.90
2023-02-24T10:48:42.853Z,2.80
2023-02-24T10:52:09.377Z,2.90
2023-02-24T10:55:53.473Z,2.90
2023-02-24T10:59:41.683Z,2.90
2023-02-24T11:03:22.058Z,2.90
2023-02-24T11:06:55.691Z,2.90
2023-02-24T11:10:32.496Z,2.90
2023-02-24T11:14:14.966Z,2.90
2023-02-24T11:17:46.832Z,2.90
2023-02-24T11:21:14.308Z,2.90
2023-02-24T11:24:39.523Z,2.90
2023-02-24T11:28:05.764Z,2.90
2023-02-24T11:31:51.917Z,2.80
2023-02-24T11:35:22.247Z,2.90
2023-02-24T11:39:00.788Z,2.90
2023-02-24T11:42:37.739Z,2.90
2023-02-24T11:46:11.129Z,3.00
2023-02-24T11:49:42.226Z,3.00
2023-02-24T11:53:13.335Z,3.00
2023-02-24T11:56:42.118Z,3.00
2023-02-24T12:00:15.588Z,3.00
2023-02-24T12:03:45.913Z,3.00
2023-02-24T12:07:23.376Z,2.90
2023-02-24T12:10:52.471Z,2.90
2023-02-24T12:14:27.695Z,3.00
2023-02-24T12:18:01.656Z,2.90
2023-02-24T12:21:30.464Z,2.90
2023-02-24T12:24:54.655Z,2.80
2023-02-24T12:28:30.292Z,2.80
2023-02-24T12:32:02.851Z,2.90
2023-02-24T12:35:35.243Z,2.80
2023-02-24T12:39:09.922Z,2.80
2023-02-24T12:42:42.319Z,2.80
2023-02-24T12:46:14.788Z,2.70
2023-02-24T12:49:54.300Z,2.50
2023-02-24T12:53:23.716Z,2.50
2023-02-24T12:56:57.192Z,2.40
2023-02-24T13:00:26.789Z,2.50
2023-02-24T13:03:58.854Z,2.50
2023-02-24T13:07:43.196Z,2.50
2023-02-24T13:11:14.322Z,2.70
2023-02-24T13:14:41.115Z,2.80
2023-02-24T13:18:04.878Z,2.70
2023-02-24T13:21:28.404Z,2.70
2023-02-24T13:25:18.848Z,2.70
2023-02-24T13:28:43.904Z,2.70
2023-02-24T13:32:24.676Z,2.80
2023-02-24T13:35:50.613Z,2.90
2023-02-24T13:39:23.903Z,2.90
2023-02-24T13:42:59.063Z,2.90
2023-02-24T13:46:23.379Z,2.90
2023-02-24T13:49:59.996Z,3.00
2023-02-24T13:53:35.130Z,3.00
2023-02-24T13:57:06.482Z,3.00
2023-02-24T14:00:42.743Z,3.10
2023-02-24T14:04:14.500Z,3.10
2023-02-24T14:07:40.651Z,3.10
2023-02-24T14:11:04.686Z,3.30
2023-02-24T14:14:29.043Z,3.30
2023-02-24T14:17:59.669Z,3.40
2023-02-24T14:21:25.368Z,3.50
2023-02-24T14:24:49.104Z,3.70
2023-02-24T14:28:23.145Z,3.70
2023-02-24T14:31:49.801Z,3.60
2023-02-24T14:35:24.464Z,3.70
2023-02-24T14:38:48.198Z,3.70
2023-02-24T14:42:14.881Z,3.80
2023-02-24T14:45:50.316Z,3.80
2023-02-24T14:49:21.439Z,3.70
2023-02-24T14:52:49.781Z,3.80
2023-02-24T14:56:14.064Z,3.80
2023-02-24T14:59:40.940Z,3.80
2023-02-24T15:03:13.322Z,3.80
2023-02-24T15:06:40.831Z,3.90
2023-02-24T15:10:08.286Z,3.80
2023-02-24T15:13:38.744Z,3.90
2023-02-24T15:17:09.448Z,3.90
2023-02-24T15:20:35.476Z,4.00
2023-02-24T15:24:03.256Z,4.10
2023-02-24T15:27:32.806Z,4.00
2023-02-24T15:31:10.942Z,4.10
2023-02-24T15:34:37.718Z,4.10
2023-02-24T15:38:02.964Z,4.20
2023-02-24T15:41:26.740Z,4.20
2023-02-24T15:44:55.547Z,4.20
2023-02-24T15:48:22.277Z,4.20
2023-02-24T15:51:48.100Z,4.20
2023-02-24T15:55:15.496Z,4.30
2023-02-24T15:58:41.452Z,4.30
2023-02-24T16:02:13.756Z,4.30
2023-02-24T16:05:39.671Z,4.30
2023-02-24T16:09:05.156Z,4.30
2023-02-24T16:12:32.257Z,4.30
2023-02-24T16:15:56.276Z,4.30
2023-02-24T16:19:21.257Z,4.30
2023-02-24T16:22:44.863Z,4.30
2023-02-24T16:26:14.482Z,4.30
2023-02-24T16:29:38.128Z,4.30
2023-02-24T16:33:02.302Z,4.30
2023-02-24T16:36:28.375Z,4.40
2023-02-24T16:39:52.802Z,4.40
2023-02-24T16:43:17.141Z,4.40
2023-02-24T16:46:42.218Z,4.40
2023-02-24T16:50:06.664Z,4.40
2023-02-24T16:53:32.218Z,4.40
2023-02-24T16:56:56.047Z,4.40
2023-02-24T17:00:22.935Z,4.50
2023-02-24T17:03:49.792Z,4.50
2023-02-24T17:07:14.449Z,4.60
2023-02-24T17:10:39.980Z,4.50
2023-02-24T17:14:05.900Z,4.60
2023-02-24T17:17:29.684Z,4.60
2023-02-24T17:20:54.037Z,4.60
2023-02-24T17:24:19.944Z,4.60
2023-02-24T17:27:44.992Z,4.70
2023-02-24T17:31:08.711Z,4.70
2023-02-24T17:34:32.311Z,4.70
2023-02-24T17:37:56.049Z,4.80
2023-02-24T17:41:19.591Z,4.80
2023-02-24T17:44:45.493Z,4.80
2023-02-24T17:48:09.265Z,4.80
2023-02-24T17:51:33.007Z,4.70
2023-02-24T17:54:56.574Z,4.70
2023-02-24T17:58:20.211Z,4.70
2023-02-24T18:01:45.086Z,4.80
2023-02-24T18:05:08.999Z,4.80
2023-02-24T18:08:34.246Z,4.80
2023-02-24T18:11:57.746Z,4.80
2023-02-24T18:15:21.257Z,4.90
2023-02-24T18:18:46.159Z,4.90
2023-02-24T18:22:09.847Z,4.90
2023-02-24T18:25:34.960Z,4.90
2023-02-24T18:28:58.765Z,4.90
2023-02-24T18:32:22.780Z,4.90
2023-02-24T18:35:47.742Z,4.90
2023-02-24T18:39:14.439Z,4.90
2023-02-24T18:42:38.565Z,4.90
2023-02-24T18:46:03.868Z,5.00
2023-02-24T18:49:27.777Z,4.90
2023-02-24T18:52:52.795Z,4.90
2023-02-24T18:56:19.065Z,4.80
2023-02-24T18:59:42.780Z,4.70
2023-02-24T19:03:06.344Z,4.60
2023-02-24T19:06:32.681Z,4.60
2023-02-24T19:09:57.654Z,4.60
2023-02-24T19:13:22.534Z,4.60
2023-02-24T19:16:46.268Z,4.50
2023-02-24T19:20:11.594Z,4.50
2023-02-24T19:23:35.450Z,4.50
2023-02-24T19:27:00.449Z,4.50
2023-02-24T19:30:24.079Z,4.50
2023-02-24T19:33:51.839Z,4.50
2023-02-24T19:37:15.386Z,4.40
2023-02-24T19:40:39.077Z,4.50
2023-02-24T19:44:04.277Z,4.50
2023-02-24T19:47:27.824Z,4.40
2023-02-24T19:50:51.438Z,4.30
2023-02-24T19:54:16.026Z,4.30
2023-02-24T19:57:40.221Z,4.30
2023-02-24T20:01:11.034Z,4.30
2023-02-24T20:04:36.619Z,4.30
2023-02-24T20:08:00.235Z,4.30
2023-02-24T20:11:24.593Z,4.40
2023-02-24T20:14:50.299Z,4.40
2023-02-24T20:18:15.216Z,4.40
2023-02-24T20:21:40.521Z,4.40
2023-02-24T20:25:04.046Z,4.40
2023-02-24T20:28:28.357Z,4.50
2023-02-24T20:31:52.621Z,4.40
2023-02-24T20:35:17.670Z,4.30
2023-02-24T20:38:41.528Z,4.40
2023-02-24T20:42:05.084Z,4.40
2023-02-24T20:45:29.376Z,4.40
2023-02-24T20:48:53.591Z,4.40
2023-02-24T20:52:18.467Z,4.30
2023-02-24T20:55:42.052Z,4.30
2023-02-24T20:59:07.656Z,4.30
2023-02-24T21:02:32.018Z,4.30
2023-02-24T21:06:09.076Z,4.30
2023-02-24T21:09:37.204Z,4.30
2023-02-24T21:13:00.820Z,4.30
2023-02-24T21:16:24.817Z,4.40
2023-02-24T21:19:49.757Z,4.30
2023-02-24T21:23:13.379Z,4.30
2023-02-24T21:26:38.362Z,4.30
2023-02-24T21:30:01.857Z,4.30
2023-02-24T21:33:25.534Z,4.30
2023-02-24T21:36:49.371Z,4.20
2023-02-24T21:40:17.546Z,4.20
2023-02-24T21:43:44.070Z,4.20
2023-02-24T21:47:07.989Z,4.20
2023-02-24T21:50:31.552Z,4.10
2023-02-24T21:53:56.694Z,4.10
2023-02-24T21:57:20.717Z,4.10
2023-02-24T22:00:46.049Z,4.10
2023-02-24T22:04:12.003Z,4.10
2023-02-24T22:07:37.354Z,4.10
2023-02-24T22:11:02.349Z,4.10
2023-02-24T22:14:25.908Z,4.10
2023-02-24T22:17:50.808Z,4.10
2023-02-24T22:21:17.291Z,4.00
2023-02-24T22:24:41.520Z,4.00
2023-02-24T22:28:05.387Z,4.00
2023-02-24T22:31:30.710Z,4.00
2023-02-24T22:34:55.749Z,4.00
2023-02-24T22:38:19.299Z,4.00
2023-02-24T22:41:47.711Z,4.00
2023-02-24T22:45:12.774Z,4.10
2023-02-24T22:48:37.982Z,4.00
2023-02-24T22:52:03.418Z,4.00
2023-02-24T22:55:30.437Z,4.00
2023-02-24T22:58:56.888Z,4.00
2023-02-24T23:02:21.162Z,4.00
2023-02-24T23:05:55.808Z,4.00
2023-02-24T23:09:25.002Z,4.00
2023-02-24T23:12:52.998Z,4.00
2023-02-24T23:16:21.682Z,3.90
2023-02-24T23:19:45.534Z,3.90
2023-02-24T23:23:10.552Z,3.90
2023-02-24T23:26:41.810Z,4.00
2023-02-24T23:30:08.502Z,4.00
2023-02-24T23:33:34.307Z,3.90
2023-02-24T23:37:05.560Z,4.00
2023-02-24T23:40:35.924Z,3.90
2023-02-24T23:44:07.119Z,3.90
2023-02-24T23:47:31.160Z,3.90
2023-02-24T23:50:57.239Z,4.00
2023-02-24T23:54:20.832Z,3.90
2023-02-24T23:57:44.968Z,3.90
